To NAV CANADA Home Page Login to a new session Search on AWWS site Feedback and Comments Disclaimer Vers la page française équivalente Tips FAQ What's new on the site To the Forecasts and Observations / NOTAM section To "File a Flight Plan" website Publications and other links Update of the User's profile FIC Telephone Numbers My Weather Data Folder Route Weather Data Regional Weather Data Local Weather Data To the Forecasts and Observations / NOTAM section
Request Generated 04/27/2015 at 17:02:13 UTC . Weather information available at that time is displayed.

METAR/TAF

WINDSOR/ON    

METAR CYQG 271600Z 34012KT 15SM OVC028 07/01 A3001 RMK SC8 SLP165=
METAR CYQG 271500Z 35010G16KT 15SM BKN026 07/01 A2999 RMK CU7 SLP161=
METAR CYQG 271400Z 01014G19KT 15SM BKN021 06/01 A2997 RMK CU7 SLP153=

TAF AMD CYQG 271431Z 2714/2812 36010G20KT P6SM BKN020
BECMG 2715/2716 BKN030
FM280000 01010KT P6SM SCT030 TEMPO 2800/2802 BKN030
FM280300 35005KT P6SM FEW030
RMK NXT FCST BY 271800Z=
Your time UTC time
Weather data provided by Environment Canada and NAV CANADA